sensor_id;sensor_type;location;lat;lon;timestamp;P1;durP1;ratioP1;P2;durP2;ratioP2
22973;SDS011;11653;50.848;4.584;2022-07-05T00:01:44;4.27;;;3.87;;
22973;SDS011;11653;50.848;4.584;2022-07-05T00:04:10;6.47;;;3.90;;
22973;SDS011;11653;50.848;4.584;2022-07-05T00:06:35;4.70;;;3.97;;
22973;SDS011;11653;50.848;4.584;2022-07-05T00:09:01;3.93;;;3.53;;
22973;SDS011;11653;50.848;4.584;2022-07-05T00:11:27;4.13;;;3.60;;
22973;SDS011;11653;50.848;4.584;2022-07-05T00:13:53;4.67;;;4.10;;
22973;SDS011;11653;50.848;4.584;2022-07-05T00:16:19;5.37;;;3.50;;
22973;SDS011;11653;50.848;4.584;2022-07-05T00:18:44;6.43;;;3.90;;
22973;SDS011;11653;50.848;4.584;2022-07-05T00:21:10;6.30;;;3.90;;
22973;SDS011;11653;50.848;4.584;2022-07-05T00:23:36;6.27;;;4.23;;
22973;SDS011;11653;50.848;4.584;2022-07-05T00:26:01;9.73;;;4.53;;
22973;SDS011;11653;50.848;4.584;2022-07-05T00:28:27;6.80;;;3.90;;
22973;SDS011;11653;50.848;4.584;2022-07-05T00:30:53;6.30;;;4.30;;
22973;SDS011;11653;50.848;4.584;2022-07-05T00:33:18;6.43;;;4.17;;
22973;SDS011;11653;50.848;4.584;2022-07-05T00:35:44;6.60;;;4.10;;
22973;SDS011;11653;50.848;4.584;2022-07-05T00:38:10;7.90;;;4.40;;
22973;SDS011;11653;50.848;4.584;2022-07-05T00:40:35;6.53;;;4.00;;
22973;SDS011;11653;50.848;4.584;2022-07-05T00:43:01;5.63;;;4.07;;
22973;SDS011;11653;50.848;4.584;2022-07-05T00:45:27;7.27;;;4.60;;
22973;SDS011;11653;50.848;4.584;2022-07-05T00:47:53;4.83;;;4.30;;
22973;SDS011;11653;50.848;4.584;2022-07-05T00:50:18;4.20;;;3.77;;
22973;SDS011;11653;50.848;4.584;2022-07-05T00:52:44;6.30;;;3.50;;
22973;SDS011;11653;50.848;4.584;2022-07-05T00:55:11;5.83;;;3.70;;
22973;SDS011;11653;50.848;4.584;2022-07-05T00:57:36;4.63;;;3.93;;
22973;SDS011;11653;50.848;4.584;2022-07-05T01:00:03;5.50;;;4.17;;
22973;SDS011;11653;50.848;4.584;2022-07-05T01:02:30;5.03;;;4.10;;
22973;SDS011;11653;50.848;4.584;2022-07-05T01:04:55;4.87;;;3.87;;
22973;SDS011;11653;50.848;4.584;2022-07-05T01:07:22;4.07;;;3.77;;
22973;SDS011;11653;50.848;4.584;2022-07-05T01:09:48;5.60;;;4.50;;
22973;SDS011;11653;50.848;4.584;2022-07-05T01:12:14;10.17;;;4.50;;
22973;SDS011;11653;50.848;4.584;2022-07-05T01:14:41;5.67;;;4.40;;
22973;SDS011;11653;50.848;4.584;2022-07-05T01:17:07;5.47;;;4.13;;
22973;SDS011;11653;50.848;4.584;2022-07-05T01:19:33;7.23;;;4.17;;
22973;SDS011;11653;50.848;4.584;2022-07-05T01:22:01;4.77;;;4.27;;
22973;SDS011;11653;50.848;4.584;2022-07-05T01:24:30;4.73;;;4.23;;
22973;SDS011;11653;50.848;4.584;2022-07-05T01:26:56;6.20;;;3.80;;
22973;SDS011;11653;50.848;4.584;2022-07-05T01:29:22;6.37;;;4.37;;
22973;SDS011;11653;50.848;4.584;2022-07-05T01:31:48;4.50;;;4.07;;
22973;SDS011;11653;50.848;4.584;2022-07-05T01:34:13;6.27;;;4.40;;
22973;SDS011;11653;50.848;4.584;2022-07-05T01:36:39;5.97;;;3.93;;
22973;SDS011;11653;50.848;4.584;2022-07-05T01:39:05;4.90;;;4.17;;
22973;SDS011;11653;50.848;4.584;2022-07-05T01:41:32;4.70;;;4.30;;
22973;SDS011;11653;50.848;4.584;2022-07-05T01:43:58;8.20;;;4.77;;
22973;SDS011;11653;50.848;4.584;2022-07-05T01:46:24;5.13;;;4.60;;
22973;SDS011;11653;50.848;4.584;2022-07-05T01:48:55;8.77;;;4.13;;
22973;SDS011;11653;50.848;4.584;2022-07-05T01:51:24;8.00;;;4.20;;
22973;SDS011;11653;50.848;4.584;2022-07-05T01:53:54;4.40;;;3.93;;
22973;SDS011;11653;50.848;4.584;2022-07-05T01:56:20;4.97;;;4.37;;
22973;SDS011;11653;50.848;4.584;2022-07-05T01:58:46;4.87;;;3.83;;
22973;SDS011;11653;50.848;4.584;2022-07-05T02:01:12;6.80;;;4.13;;
22973;SDS011;11653;50.848;4.584;2022-07-05T02:03:41;5.40;;;4.57;;
22973;SDS011;11653;50.848;4.584;2022-07-05T02:06:09;6.90;;;3.60;;
22973;SDS011;11653;50.848;4.584;2022-07-05T02:08:35;5.13;;;4.00;;
22973;SDS011;11653;50.848;4.584;2022-07-05T02:11:02;4.33;;;3.80;;
22973;SDS011;11653;50.848;4.584;2022-07-05T02:13:29;4.70;;;3.70;;
22973;SDS011;11653;50.848;4.584;2022-07-05T02:15:54;6.10;;;3.67;;
22973;SDS011;11653;50.848;4.584;2022-07-05T02:18:20;4.67;;;3.70;;
22973;SDS011;11653;50.848;4.584;2022-07-05T02:20:45;5.77;;;4.00;;
22973;SDS011;11653;50.848;4.584;2022-07-05T02:23:11;4.57;;;3.83;;
22973;SDS011;11653;50.848;4.584;2022-07-05T02:25:37;4.40;;;4.00;;
22973;SDS011;11653;50.848;4.584;2022-07-05T02:28:02;5.53;;;4.30;;
22973;SDS011;11653;50.848;4.584;2022-07-05T02:30:29;4.97;;;3.50;;
22973;SDS011;11653;50.848;4.584;2022-07-05T02:32:55;6.80;;;4.00;;
22973;SDS011;11653;50.848;4.584;2022-07-05T02:35:20;4.57;;;4.17;;
22973;SDS011;11653;50.848;4.584;2022-07-05T02:37:46;7.77;;;4.20;;
22973;SDS011;11653;50.848;4.584;2022-07-05T02:40:12;8.30;;;4.27;;
22973;SDS011;11653;50.848;4.584;2022-07-05T02:42:39;6.20;;;4.10;;
22973;SDS011;11653;50.848;4.584;2022-07-05T02:45:05;4.77;;;4.27;;
22973;SDS011;11653;50.848;4.584;2022-07-05T02:47:35;5.27;;;3.97;;
22973;SDS011;11653;50.848;4.584;2022-07-05T02:50:04;4.53;;;3.97;;
22973;SDS011;11653;50.848;4.584;2022-07-05T02:52:33;7.37;;;3.93;;
22973;SDS011;11653;50.848;4.584;2022-07-05T02:54:59;5.27;;;3.53;;
22973;SDS011;11653;50.848;4.584;2022-07-05T02:57:25;6.73;;;4.10;;
22973;SDS011;11653;50.848;4.584;2022-07-05T02:59:52;4.40;;;4.00;;
22973;SDS011;11653;50.848;4.584;2022-07-05T03:02:19;5.00;;;4.30;;
22973;SDS011;11653;50.848;4.584;2022-07-05T03:04:45;5.13;;;4.40;;
22973;SDS011;11653;50.848;4.584;2022-07-05T03:07:11;6.17;;;4.70;;
22973;SDS011;11653;50.848;4.584;2022-07-05T03:09:37;6.60;;;4.80;;
22973;SDS011;11653;50.848;4.584;2022-07-05T03:12:03;5.70;;;4.47;;
22973;SDS011;11653;50.848;4.584;2022-07-05T03:14:29;7.80;;;5.17;;
22973;SDS011;11653;50.848;4.584;2022-07-05T03:16:54;7.37;;;5.13;;
22973;SDS011;11653;50.848;4.584;2022-07-05T03:19:20;8.87;;;4.80;;
22973;SDS011;11653;50.848;4.584;2022-07-05T03:21:46;7.77;;;4.80;;
22973;SDS011;11653;50.848;4.584;2022-07-05T03:24:11;8.20;;;4.43;;
22973;SDS011;11653;50.848;4.584;2022-07-05T03:26:37;5.80;;;5.20;;
22973;SDS011;11653;50.848;4.584;2022-07-05T03:29:03;6.17;;;4.60;;
22973;SDS011;11653;50.848;4.584;2022-07-05T03:31:28;6.43;;;4.70;;
22973;SDS011;11653;50.848;4.584;2022-07-05T03:33:54;8.03;;;4.67;;
22973;SDS011;11653;50.848;4.584;2022-07-05T03:36:21;5.27;;;4.00;;
22973;SDS011;11653;50.848;4.584;2022-07-05T03:38:47;5.23;;;3.47;;
22973;SDS011;11653;50.848;4.584;2022-07-05T03:41:13;6.20;;;3.77;;
22973;SDS011;11653;50.848;4.584;2022-07-05T03:43:38;6.20;;;4.30;;
22973;SDS011;11653;50.848;4.584;2022-07-05T03:46:04;7.67;;;4.33;;
22973;SDS011;11653;50.848;4.584;2022-07-05T03:48:29;11.97;;;5.10;;
22973;SDS011;11653;50.848;4.584;2022-07-05T03:50:55;8.60;;;4.20;;
22973;SDS011;11653;50.848;4.584;2022-07-05T03:53:21;5.73;;;4.27;;
22973;SDS011;11653;50.848;4.584;2022-07-05T03:55:46;7.07;;;4.60;;
22973;SDS011;11653;50.848;4.584;2022-07-05T03:58:12;5.60;;;4.47;;
22973;SDS011;11653;50.848;4.584;2022-07-05T04:00:38;7.77;;;4.63;;
22973;SDS011;11653;50.848;4.584;2022-07-05T04:03:03;8.37;;;4.90;;
22973;SDS011;11653;50.848;4.584;2022-07-05T04:05:29;5.63;;;4.50;;
22973;SDS011;11653;50.848;4.584;2022-07-05T04:07:55;7.27;;;4.67;;
22973;SDS011;11653;50.848;4.584;2022-07-05T04:10:21;6.70;;;5.37;;
22973;SDS011;11653;50.848;4.584;2022-07-05T04:12:47;7.27;;;4.50;;
22973;SDS011;11653;50.848;4.584;2022-07-05T04:15:13;7.63;;;4.43;;
22973;SDS011;11653;50.848;4.584;2022-07-05T04:17:46;7.23;;;5.00;;
22973;SDS011;11653;50.848;4.584;2022-07-05T04:20:12;9.20;;;5.27;;
22973;SDS011;11653;50.848;4.584;2022-07-05T04:22:38;7.70;;;5.07;;
22973;SDS011;11653;50.848;4.584;2022-07-05T04:25:03;7.57;;;4.33;;
22973;SDS011;11653;50.848;4.584;2022-07-05T04:27:42;7.70;;;5.43;;
22973;SDS011;11653;50.848;4.584;2022-07-05T04:30:08;6.90;;;4.73;;
22973;SDS011;11653;50.848;4.584;2022-07-05T04:32:34;4.90;;;3.97;;
22973;SDS011;11653;50.848;4.584;2022-07-05T04:35:00;5.37;;;3.77;;
22973;SDS011;11653;50.848;4.584;2022-07-05T04:37:26;4.63;;;3.80;;
22973;SDS011;11653;50.848;4.584;2022-07-05T04:39:52;4.67;;;4.00;;
22973;SDS011;11653;50.848;4.584;2022-07-05T04:42:18;6.43;;;4.50;;
22973;SDS011;11653;50.848;4.584;2022-07-05T04:44:43;10.13;;;4.63;;
22973;SDS011;11653;50.848;4.584;2022-07-05T04:47:09;5.70;;;4.07;;
22973;SDS011;11653;50.848;4.584;2022-07-05T04:49:35;7.03;;;4.10;;
22973;SDS011;11653;50.848;4.584;2022-07-05T04:52:03;7.97;;;3.93;;
22973;SDS011;11653;50.848;4.584;2022-07-05T04:54:29;6.23;;;4.23;;
22973;SDS011;11653;50.848;4.584;2022-07-05T04:56:55;6.03;;;4.13;;
22973;SDS011;11653;50.848;4.584;2022-07-05T04:59:21;4.93;;;3.83;;
22973;SDS011;11653;50.848;4.584;2022-07-05T05:01:46;5.93;;;3.77;;
22973;SDS011;11653;50.848;4.584;2022-07-05T05:04:12;4.77;;;4.10;;
22973;SDS011;11653;50.848;4.584;2022-07-05T05:06:37;4.93;;;3.70;;
22973;SDS011;11653;50.848;4.584;2022-07-05T05:09:03;5.83;;;3.90;;
22973;SDS011;11653;50.848;4.584;2022-07-05T05:11:29;6.20;;;3.83;;
22973;SDS011;11653;50.848;4.584;2022-07-05T05:13:55;6.67;;;3.90;;
22973;SDS011;11653;50.848;4.584;2022-07-05T05:16:20;5.83;;;4.00;;
22973;SDS011;11653;50.848;4.584;2022-07-05T05:18:46;6.23;;;3.53;;
22973;SDS011;11653;50.848;4.584;2022-07-05T05:21:12;6.30;;;3.37;;
22973;SDS011;11653;50.848;4.584;2022-07-05T05:23:37;7.80;;;3.63;;
22973;SDS011;11653;50.848;4.584;2022-07-05T05:26:03;19.10;;;13.37;;
22973;SDS011;11653;50.848;4.584;2022-07-05T05:28:29;7.47;;;3.60;;
22973;SDS011;11653;50.848;4.584;2022-07-05T05:30:54;12.10;;;3.40;;
22973;SDS011;11653;50.848;4.584;2022-07-05T05:33:20;8.00;;;3.50;;
22973;SDS011;11653;50.848;4.584;2022-07-05T05:35:46;14.20;;;3.80;;
22973;SDS011;11653;50.848;4.584;2022-07-05T05:38:11;12.33;;;3.60;;
22973;SDS011;11653;50.848;4.584;2022-07-05T05:40:38;6.60;;;3.50;;
22973;SDS011;11653;50.848;4.584;2022-07-05T05:43:06;8.30;;;3.57;;
22973;SDS011;11653;50.848;4.584;2022-07-05T05:45:32;12.23;;;4.37;;
22973;SDS011;11653;50.848;4.584;2022-07-05T05:47:58;6.63;;;3.50;;
22973;SDS011;11653;50.848;4.584;2022-07-05T05:50:28;6.60;;;3.63;;
22973;SDS011;11653;50.848;4.584;2022-07-05T05:52:55;6.70;;;4.00;;
22973;SDS011;11653;50.848;4.584;2022-07-05T05:55:22;10.33;;;3.83;;
22973;SDS011;11653;50.848;4.584;2022-07-05T05:57:48;8.73;;;3.90;;
22973;SDS011;11653;50.848;4.584;2022-07-05T06:00:15;9.07;;;3.77;;
22973;SDS011;11653;50.848;4.584;2022-07-05T06:02:45;8.33;;;4.00;;
22973;SDS011;11653;50.848;4.584;2022-07-05T06:05:12;9.67;;;3.73;;
22973;SDS011;11653;50.848;4.584;2022-07-05T06:07:44;8.93;;;3.80;;
22973;SDS011;11653;50.848;4.584;2022-07-05T06:10:16;4.53;;;3.60;;
22973;SDS011;11653;50.848;4.584;2022-07-05T06:12:43;7.27;;;4.00;;
22973;SDS011;11653;50.848;4.584;2022-07-05T06:15:09;3.93;;;3.40;;
22973;SDS011;11653;50.848;4.584;2022-07-05T06:17:35;6.63;;;3.77;;
22973;SDS011;11653;50.848;4.584;2022-07-05T06:20:04;8.67;;;4.20;;
22973;SDS011;11653;50.848;4.584;2022-07-05T06:22:33;7.37;;;3.60;;
22973;SDS011;11653;50.848;4.584;2022-07-05T06:24:59;6.07;;;3.13;;
22973;SDS011;11653;50.848;4.584;2022-07-05T06:27:25;9.10;;;4.10;;
22973;SDS011;11653;50.848;4.584;2022-07-05T06:29:50;6.50;;;3.20;;
22973;SDS011;11653;50.848;4.584;2022-07-05T06:32:16;9.00;;;3.63;;
22973;SDS011;11653;50.848;4.584;2022-07-05T06:34:42;6.18;;;3.10;;
22973;SDS011;11653;50.848;4.584;2022-07-05T06:37:07;6.82;;;3.10;;
22973;SDS011;11653;50.848;4.584;2022-07-05T06:39:33;6.60;;;3.10;;
22973;SDS011;11653;50.848;4.584;2022-07-05T06:41:59;9.50;;;3.30;;
22973;SDS011;11653;50.848;4.584;2022-07-05T06:44:24;11.18;;;6.72;;
22973;SDS011;11653;50.848;4.584;2022-07-05T06:46:50;7.13;;;2.78;;
22973;SDS011;11653;50.848;4.584;2022-07-05T06:49:15;6.38;;;3.00;;
22973;SDS011;11653;50.848;4.584;2022-07-05T06:51:41;8.18;;;2.95;;
22973;SDS011;11653;50.848;4.584;2022-07-05T06:54:07;6.22;;;2.45;;
22973;SDS011;11653;50.848;4.584;2022-07-05T06:56:32;9.13;;;2.47;;
22973;SDS011;11653;50.848;4.584;2022-07-05T06:58:58;6.57;;;2.50;;
22973;SDS011;11653;50.848;4.584;2022-07-05T07:01:24;7.50;;;2.00;;
22973;SDS011;11653;50.848;4.584;2022-07-05T07:03:49;4.35;;;2.63;;
22973;SDS011;11653;50.848;4.584;2022-07-05T07:06:15;7.90;;;2.40;;
22973;SDS011;11653;50.848;4.584;2022-07-05T07:08:41;7.95;;;2.60;;
22973;SDS011;11653;50.848;4.584;2022-07-05T07:11:25;5.55;;;2.28;;
22973;SDS011;11653;50.848;4.584;2022-07-05T07:13:51;6.72;;;2.22;;
22973;SDS011;11653;50.848;4.584;2022-07-05T07:16:17;5.68;;;2.50;;
22973;SDS011;11653;50.848;4.584;2022-07-05T07:18:43;7.78;;;2.60;;
22973;SDS011;11653;50.848;4.584;2022-07-05T07:21:09;6.28;;;2.88;;
22973;SDS011;11653;50.848;4.584;2022-07-05T07:23:34;9.27;;;2.45;;
22973;SDS011;11653;50.848;4.584;2022-07-05T07:26:01;6.93;;;2.60;;
22973;SDS011;11653;50.848;4.584;2022-07-05T07:28:27;6.03;;;2.70;;
22973;SDS011;11653;50.848;4.584;2022-07-05T07:30:54;6.55;;;2.53;;
22973;SDS011;11653;50.848;4.584;2022-07-05T07:33:20;8.63;;;2.78;;
22973;SDS011;11653;50.848;4.584;2022-07-05T07:35:46;7.13;;;2.40;;
22973;SDS011;11653;50.848;4.584;2022-07-05T07:38:13;6.18;;;2.35;;
22973;SDS011;11653;50.848;4.584;2022-07-05T07:40:39;9.20;;;3.70;;
22973;SDS011;11653;50.848;4.584;2022-07-05T07:43:05;5.55;;;2.40;;
22973;SDS011;11653;50.848;4.584;2022-07-05T07:45:30;6.30;;;2.95;;
22973;SDS011;11653;50.848;4.584;2022-07-05T07:47:56;6.30;;;2.85;;
22973;SDS011;11653;50.848;4.584;2022-07-05T07:50:22;7.90;;;2.90;;
22973;SDS011;11653;50.848;4.584;2022-07-05T07:52:48;6.53;;;2.90;;
22973;SDS011;11653;50.848;4.584;2022-07-05T07:55:14;8.73;;;3.30;;
22973;SDS011;11653;50.848;4.584;2022-07-05T07:57:41;4.90;;;2.40;;
22973;SDS011;11653;50.848;4.584;2022-07-05T08:00:06;7.07;;;2.55;;
22973;SDS011;11653;50.848;4.584;2022-07-05T08:02:33;7.25;;;2.42;;
22973;SDS011;11653;50.848;4.584;2022-07-05T08:04:58;7.75;;;2.05;;
22973;SDS011;11653;50.848;4.584;2022-07-05T08:07:24;5.30;;;2.30;;
22973;SDS011;11653;50.848;4.584;2022-07-05T08:09:50;5.22;;;2.35;;
22973;SDS011;11653;50.848;4.584;2022-07-05T08:12:17;10.35;;;2.70;;
22973;SDS011;11653;50.848;4.584;2022-07-05T08:14:43;7.07;;;2.28;;
22973;SDS011;11653;50.848;4.584;2022-07-05T08:17:11;5.45;;;2.58;;
22973;SDS011;11653;50.848;4.584;2022-07-05T08:19:37;7.25;;;3.58;;
22973;SDS011;11653;50.848;4.584;2022-07-05T08:22:21;7.97;;;2.95;;
22973;SDS011;11653;50.848;4.584;2022-07-05T08:24:47;5.45;;;2.30;;
22973;SDS011;11653;50.848;4.584;2022-07-05T08:27:13;4.63;;;2.42;;
22973;SDS011;11653;50.848;4.584;2022-07-05T08:29:39;12.18;;;2.58;;
22973;SDS011;11653;50.848;4.584;2022-07-05T08:32:05;6.72;;;2.50;;
22973;SDS011;11653;50.848;4.584;2022-07-05T08:34:32;5.63;;;2.25;;
22973;SDS011;11653;50.848;4.584;2022-07-05T08:36:58;6.43;;;2.50;;
22973;SDS011;11653;50.848;4.584;2022-07-05T08:39:24;10.80;;;2.22;;
22973;SDS011;11653;50.848;4.584;2022-07-05T08:41:50;5.00;;;1.73;;
22973;SDS011;11653;50.848;4.584;2022-07-05T08:44:17;6.82;;;2.00;;
22973;SDS011;11653;50.848;4.584;2022-07-05T08:46:44;4.78;;;2.00;;
22973;SDS011;11653;50.848;4.584;2022-07-05T08:49:11;3.92;;;1.60;;
22973;SDS011;11653;50.848;4.584;2022-07-05T08:51:39;6.80;;;1.98;;
22973;SDS011;11653;50.848;4.584;2022-07-05T08:54:10;11.45;;;2.17;;
22973;SDS011;11653;50.848;4.584;2022-07-05T08:56:37;5.90;;;2.00;;
22973;SDS011;11653;50.848;4.584;2022-07-05T08:59:05;9.10;;;2.13;;
22973;SDS011;11653;50.848;4.584;2022-07-05T09:01:31;5.70;;;2.00;;
22973;SDS011;11653;50.848;4.584;2022-07-05T09:04:08;7.32;;;1.80;;
22973;SDS011;11653;50.848;4.584;2022-07-05T09:06:36;6.10;;;1.90;;
22973;SDS011;11653;50.848;4.584;2022-07-05T09:09:04;6.20;;;1.80;;
22973;SDS011;11653;50.848;4.584;2022-07-05T09:11:32;12.00;;;2.08;;
22973;SDS011;11653;50.848;4.584;2022-07-05T09:14:02;4.57;;;1.38;;
22973;SDS011;11653;50.848;4.584;2022-07-05T09:16:29;6.60;;;1.95;;
22973;SDS011;11653;50.848;4.584;2022-07-05T09:18:56;6.72;;;1.63;;
22973;SDS011;11653;50.848;4.584;2022-07-05T09:21:25;8.80;;;1.90;;
22973;SDS011;11653;50.848;4.584;2022-07-05T09:23:53;4.93;;;1.60;;
22973;SDS011;11653;50.848;4.584;2022-07-05T09:26:21;6.22;;;1.45;;
22973;SDS011;11653;50.848;4.584;2022-07-05T09:29:04;5.10;;;2.00;;
22973;SDS011;11653;50.848;4.584;2022-07-05T09:31:32;6.78;;;2.13;;
22973;SDS011;11653;50.848;4.584;2022-07-05T09:34:03;5.13;;;1.58;;
22973;SDS011;11653;50.848;4.584;2022-07-05T09:36:46;5.88;;;1.90;;
22973;SDS011;11653;50.848;4.584;2022-07-05T09:42:11;5.85;;;2.15;;
22973;SDS011;11653;50.848;4.584;2022-07-05T09:44:51;4.28;;;1.67;;
22973;SDS011;11653;50.848;4.584;2022-07-05T09:47:20;4.07;;;1.70;;
22973;SDS011;11653;50.848;4.584;2022-07-05T09:49:50;5.68;;;1.60;;
22973;SDS011;11653;50.848;4.584;2022-07-05T09:52:28;6.30;;;2.28;;
22973;SDS011;11653;50.848;4.584;2022-07-05T09:55:08;6.75;;;2.28;;
22973;SDS011;11653;50.848;4.584;2022-07-05T09:57:37;8.70;;;2.53;;
22973;SDS011;11653;50.848;4.584;2022-07-05T10:02:35;8.50;;;2.63;;
22973;SDS011;11653;50.848;4.584;2022-07-05T10:07:45;5.53;;;2.40;;
22973;SDS011;11653;50.848;4.584;2022-07-05T10:10:13;8.82;;;2.30;;
22973;SDS011;11653;50.848;4.584;2022-07-05T10:12:45;3.97;;;2.00;;
22973;SDS011;11653;50.848;4.584;2022-07-05T10:15:22;6.43;;;2.33;;
22973;SDS011;11653;50.848;4.584;2022-07-05T10:17:53;7.57;;;2.10;;
22973;SDS011;11653;50.848;4.584;2022-07-05T10:22:57;5.40;;;2.00;;
22973;SDS011;11653;50.848;4.584;2022-07-05T10:25:23;3.85;;;1.52;;
22973;SDS011;11653;50.848;4.584;2022-07-05T10:27:52;4.25;;;1.50;;
22973;SDS011;11653;50.848;4.584;2022-07-05T10:30:19;4.28;;;1.73;;
22973;SDS011;11653;50.848;4.584;2022-07-05T10:32:47;4.20;;;2.22;;
22973;SDS011;11653;50.848;4.584;2022-07-05T10:35:14;6.60;;;1.80;;
22973;SDS011;11653;50.848;4.584;2022-07-05T10:37:41;6.63;;;2.17;;
22973;SDS011;11653;50.848;4.584;2022-07-05T10:40:07;5.78;;;2.00;;
22973;SDS011;11653;50.848;4.584;2022-07-05T10:42:39;5.15;;;2.00;;
22973;SDS011;11653;50.848;4.584;2022-07-05T10:50:51;6.47;;;1.88;;
22973;SDS011;11653;50.848;4.584;2022-07-05T10:58:21;4.03;;;2.20;;
22973;SDS011;11653;50.848;4.584;2022-07-05T11:01:30;6.93;;;2.20;;
22973;SDS011;11653;50.848;4.584;2022-07-05T11:03:41;3.88;;;2.10;;
22973;SDS011;11653;50.848;4.584;2022-07-05T11:06:09;4.75;;;2.25;;
22973;SDS011;11653;50.848;4.584;2022-07-05T11:11:32;4.80;;;2.35;;
22973;SDS011;11653;50.848;4.584;2022-07-05T11:13:59;4.70;;;2.20;;
22973;SDS011;11653;50.848;4.584;2022-07-05T11:16:28;4.65;;;2.20;;
22973;SDS011;11653;50.848;4.584;2022-07-05T11:21:34;5.83;;;2.80;;
22973;SDS011;11653;50.848;4.584;2022-07-05T11:26:53;5.57;;;2.63;;
22973;SDS011;11653;50.848;4.584;2022-07-05T11:32:10;4.03;;;2.40;;
22973;SDS011;11653;50.848;4.584;2022-07-05T11:34:40;5.30;;;2.13;;
22973;SDS011;11653;50.848;4.584;2022-07-05T11:37:26;5.78;;;1.90;;
22973;SDS011;11653;50.848;4.584;2022-07-05T11:42:36;4.47;;;1.95;;
22973;SDS011;11653;50.848;4.584;2022-07-05T11:45:07;4.93;;;1.77;;
22973;SDS011;11653;50.848;4.584;2022-07-05T11:47:34;4.40;;;1.55;;
22973;SDS011;11653;50.848;4.584;2022-07-05T11:50:00;4.88;;;1.83;;
22973;SDS011;11653;50.848;4.584;2022-07-05T11:52:26;4.75;;;1.65;;
22973;SDS011;11653;50.848;4.584;2022-07-05T11:55:10;6.72;;;1.52;;
22973;SDS011;11653;50.848;4.584;2022-07-05T11:57:37;9.98;;;1.98;;
22973;SDS011;11653;50.848;4.584;2022-07-05T12:00:13;5.00;;;1.52;;
22973;SDS011;11653;50.848;4.584;2022-07-05T12:02:51;5.68;;;1.70;;
22973;SDS011;11653;50.848;4.584;2022-07-05T12:05:17;5.43;;;1.60;;
22973;SDS011;11653;50.848;4.584;2022-07-05T12:07:47;5.38;;;1.90;;
22973;SDS011;11653;50.848;4.584;2022-07-05T12:10:19;6.40;;;1.52;;
22973;SDS011;11653;50.848;4.584;2022-07-05T12:13:04;4.40;;;1.50;;
22973;SDS011;11653;50.848;4.584;2022-07-05T12:15:33;3.45;;;1.52;;
22973;SDS011;11653;50.848;4.584;2022-07-05T12:18:01;5.93;;;1.40;;
22973;SDS011;11653;50.848;4.584;2022-07-05T12:20:28;4.85;;;1.23;;
22973;SDS011;11653;50.848;4.584;2022-07-05T12:22:55;7.10;;;1.92;;
22973;SDS011;11653;50.848;4.584;2022-07-05T12:25:22;5.13;;;1.38;;
22973;SDS011;11653;50.848;4.584;2022-07-05T12:27:49;4.72;;;1.65;;
22973;SDS011;11653;50.848;4.584;2022-07-05T12:30:16;4.10;;;1.60;;
22973;SDS011;11653;50.848;4.584;2022-07-05T12:32:58;3.28;;;1.20;;
22973;SDS011;11653;50.848;4.584;2022-07-05T12:35:43;7.30;;;1.60;;
22973;SDS011;11653;50.848;4.584;2022-07-05T12:38:11;4.45;;;2.40;;
22973;SDS011;11653;50.848;4.584;2022-07-05T12:40:40;3.85;;;1.63;;
22973;SDS011;11653;50.848;4.584;2022-07-05T12:43:11;2.95;;;1.58;;
22973;SDS011;11653;50.848;4.584;2022-07-05T12:45:42;6.63;;;1.80;;
22973;SDS011;11653;50.848;4.584;2022-07-05T12:48:31;4.97;;;2.10;;
22973;SDS011;11653;50.848;4.584;2022-07-05T12:50:58;15.25;;;2.28;;
22973;SDS011;11653;50.848;4.584;2022-07-05T12:53:24;6.90;;;2.10;;
22973;SDS011;11653;50.848;4.584;2022-07-05T12:56:09;12.07;;;3.43;;
22973;SDS011;11653;50.848;4.584;2022-07-05T12:58:55;15.43;;;3.90;;
22973;SDS011;11653;50.848;4.584;2022-07-05T13:06:47;7.47;;;2.90;;
22973;SDS011;11653;50.848;4.584;2022-07-05T13:09:14;8.80;;;2.60;;
22973;SDS011;11653;50.848;4.584;2022-07-05T13:14:32;4.93;;;2.95;;
22973;SDS011;11653;50.848;4.584;2022-07-05T13:16:59;6.23;;;2.80;;
22973;SDS011;11653;50.848;4.584;2022-07-05T13:19:24;4.13;;;2.80;;
22973;SDS011;11653;50.848;4.584;2022-07-05T13:21:50;6.73;;;3.00;;
22973;SDS011;11653;50.848;4.584;2022-07-05T13:24:16;7.40;;;2.97;;
22973;SDS011;11653;50.848;4.584;2022-07-05T13:26:42;6.83;;;2.80;;
22973;SDS011;11653;50.848;4.584;2022-07-05T13:29:07;3.00;;;2.00;;
22973;SDS011;11653;50.848;4.584;2022-07-05T13:31:33;4.80;;;2.17;;
22973;SDS011;11653;50.848;4.584;2022-07-05T13:33:59;5.63;;;2.17;;
22973;SDS011;11653;50.848;4.584;2022-07-05T13:36:25;8.63;;;2.37;;
22973;SDS011;11653;50.848;4.584;2022-07-05T13:38:52;4.13;;;1.63;;
22973;SDS011;11653;50.848;4.584;2022-07-05T13:41:17;6.83;;;2.20;;
22973;SDS011;11653;50.848;4.584;2022-07-05T13:43:43;4.13;;;1.87;;
22973;SDS011;11653;50.848;4.584;2022-07-05T13:46:09;3.27;;;1.70;;
22973;SDS011;11653;50.848;4.584;2022-07-05T13:48:36;3.87;;;1.80;;
22973;SDS011;11653;50.848;4.584;2022-07-05T13:51:02;5.00;;;1.50;;
22973;SDS011;11653;50.848;4.584;2022-07-05T13:53:28;7.10;;;2.00;;
22973;SDS011;11653;50.848;4.584;2022-07-05T13:55:53;6.43;;;2.10;;
22973;SDS011;11653;50.848;4.584;2022-07-05T13:58:19;2.43;;;1.60;;
22973;SDS011;11653;50.848;4.584;2022-07-05T14:00:45;6.10;;;1.40;;
22973;SDS011;11653;50.848;4.584;2022-07-05T14:03:10;4.83;;;1.50;;
22973;SDS011;11653;50.848;4.584;2022-07-05T14:05:36;8.23;;;1.80;;
22973;SDS011;11653;50.848;4.584;2022-07-05T14:08:02;3.23;;;1.83;;
22973;SDS011;11653;50.848;4.584;2022-07-05T14:10:29;2.77;;;1.37;;
22973;SDS011;11653;50.848;4.584;2022-07-05T14:12:54;2.67;;;1.30;;
22973;SDS011;11653;50.848;4.584;2022-07-05T14:15:20;2.73;;;1.33;;
22973;SDS011;11653;50.848;4.584;2022-07-05T14:17:46;3.50;;;1.40;;
22973;SDS011;11653;50.848;4.584;2022-07-05T14:20:11;6.27;;;1.47;;
22973;SDS011;11653;50.848;4.584;2022-07-05T14:22:38;4.20;;;1.50;;
22973;SDS011;11653;50.848;4.584;2022-07-05T14:25:04;3.23;;;1.30;;
22973;SDS011;11653;50.848;4.584;2022-07-05T14:27:30;4.23;;;1.33;;
22973;SDS011;11653;50.848;4.584;2022-07-05T14:29:56;4.27;;;1.20;;
22973;SDS011;11653;50.848;4.584;2022-07-05T14:32:22;3.83;;;1.20;;
22973;SDS011;11653;50.848;4.584;2022-07-05T14:34:48;2.67;;;1.30;;
22973;SDS011;11653;50.848;4.584;2022-07-05T14:37:13;7.53;;;1.33;;
22973;SDS011;11653;50.848;4.584;2022-07-05T14:39:39;3.57;;;1.37;;
22973;SDS011;11653;50.848;4.584;2022-07-05T14:42:05;2.63;;;1.00;;
22973;SDS011;11653;50.848;4.584;2022-07-05T14:44:31;7.23;;;1.50;;
22973;SDS011;11653;50.848;4.584;2022-07-05T14:46:56;2.93;;;1.10;;
22973;SDS011;11653;50.848;4.584;2022-07-05T14:49:22;9.67;;;1.60;;
22973;SDS011;11653;50.848;4.584;2022-07-05T14:51:48;3.90;;;1.47;;
22973;SDS011;11653;50.848;4.584;2022-07-05T14:54:13;5.43;;;1.30;;
22973;SDS011;11653;50.848;4.584;2022-07-05T14:56:39;3.53;;;1.30;;
22973;SDS011;11653;50.848;4.584;2022-07-05T14:59:05;7.33;;;1.30;;
22973;SDS011;11653;50.848;4.584;2022-07-05T15:01:31;2.00;;;1.00;;
22973;SDS011;11653;50.848;4.584;2022-07-05T15:03:56;3.60;;;1.13;;
22973;SDS011;11653;50.848;4.584;2022-07-05T15:06:22;3.90;;;1.13;;
22973;SDS011;11653;50.848;4.584;2022-07-05T15:08:47;2.73;;;1.30;;
22973;SDS011;11653;50.848;4.584;2022-07-05T15:11:13;4.03;;;1.17;;
22973;SDS011;11653;50.848;4.584;2022-07-05T15:13:39;2.70;;;1.53;;
22973;SDS011;11653;50.848;4.584;2022-07-05T15:16:04;4.33;;;1.37;;
22973;SDS011;11653;50.848;4.584;2022-07-05T15:18:30;5.10;;;1.33;;
22973;SDS011;11653;50.848;4.584;2022-07-05T15:20:56;2.27;;;1.00;;
22973;SDS011;11653;50.848;4.584;2022-07-05T15:23:22;3.27;;;1.40;;
22973;SDS011;11653;50.848;4.584;2022-07-05T15:25:53;4.43;;;1.10;;
22973;SDS011;11653;50.848;4.584;2022-07-05T15:28:19;2.07;;;1.00;;
22973;SDS011;11653;50.848;4.584;2022-07-05T15:30:45;2.70;;;0.80;;
22973;SDS011;11653;50.848;4.584;2022-07-05T15:33:11;4.83;;;1.60;;